Time;durP1;ratioP1;P1;durP2;ratioP2;P2;SDS_P1;SDS_P2;PMS_P1;PMS_P2;Temp;Humidity;BMP_temperature;BMP_pressure;BME280_temperature;BME280_humidity;BME280_pressure;Samples;Min_cycle;Max_cycle;Signal;HPM_P1;HPM_P2
2021/07/14 00:00:26;;;;;;;23.13;16.63;;;21.80;97.30;;;;;;5001590;28;20185;-87
2021/07/14 00:02:53;;;;;;;31.23;21.73;;;21.80;97.30;;;;;;5000978;28;20259;-88
2021/07/14 00:05:20;;;;;;;32.93;19.80;;;21.80;97.30;;;;;;5000967;28;20873;-88
2021/07/14 00:07:47;;;;;;;25.47;18.07;;;21.70;97.30;;;;;;4999833;28;20501;-88
2021/07/14 00:10:21;;;;;;;29.97;17.63;;;21.70;97.30;;;;;;4999847;28;20428;-87
2021/07/14 00:14:01;;;;;;;44.43;20.60;;;21.70;97.30;;;;;;4999854;28;20459;-88
2021/07/14 00:23:29;;;;;;;29.07;19.07;;;21.60;97.30;;;;;;5018732;28;20443;-87
2021/07/14 00:25:54;;;;;;;25.10;17.80;;;21.60;97.30;;;;;;4999219;28;20442;-87
2021/07/14 00:28:20;;;;;;;32.00;20.20;;;21.50;97.30;;;;;;5000282;28;20416;-88
2021/07/14 00:30:51;;;;;;;26.97;19.13;;;21.50;97.30;;;;;;5000158;28;20555;-88
2021/07/14 00:33:17;;;;;;;30.17;19.23;;;21.50;97.30;;;;;;5001180;28;20287;-89
2021/07/14 00:35:43;;;;;;;30.97;19.00;;;21.40;97.30;;;;;;5001174;28;20424;-88
2021/07/14 00:38:12;;;;;;;25.00;16.97;;;21.40;97.30;;;;;;5001162;28;20535;-85
2021/07/14 00:40:37;;;;;;;24.10;15.70;;;21.40;97.30;;;;;;5000614;28;20177;-88
2021/07/14 00:43:06;;;;;;;27.23;19.80;;;21.40;97.30;;;;;;4999740;28;20795;-88
2021/07/14 00:45:32;;;;;;;25.90;17.60;;;21.50;97.30;;;;;;5000132;28;20569;-88
2021/07/14 00:47:58;;;;;;;25.20;17.70;;;21.50;97.30;;;;;;5000659;28;20444;-88
2021/07/14 00:50:24;;;;;;;24.77;18.17;;;21.40;97.30;;;;;;5000265;28;20816;-89
2021/07/14 00:52:49;;;;;;;22.40;16.93;;;21.50;97.30;;;;;;5000406;28;20505;-88
2021/07/14 00:55:15;;;;;;;22.30;15.10;;;21.50;97.30;;;;;;5012162;28;20237;-89
2021/07/14 00:57:41;;;;;;;27.53;16.67;;;21.40;97.30;;;;;;4979922;28;20193;-89
2021/07/14 01:00:09;;;;;;;19.90;14.63;;;21.40;97.30;;;;;;4979945;28;20174;-88
2021/07/14 01:02:34;;;;;;;31.97;16.10;;;21.40;97.30;;;;;;4980174;28;20178;-87
2021/07/14 01:05:06;;;;;;;18.30;13.70;;;21.40;97.30;;;;;;4979738;28;20507;-88
2021/07/14 01:08:00;;;;;;;26.63;17.07;;;21.50;97.30;;;;;;4979606;28;20264;-88
2021/07/14 01:10:43;;;;;;;19.43;13.33;;;21.50;97.30;;;;;;4979860;28;20421;-88
2021/07/14 01:13:13;;;;;;;20.27;14.00;;;21.40;97.30;;;;;;4996605;28;20480;-88
2021/07/14 01:15:48;;;;;;;23.90;17.10;;;21.40;97.30;;;;;;4979499;28;20432;-88
2021/07/14 01:18:22;;;;;;;17.73;13.73;;;21.40;97.30;;;;;;4978897;28;20479;-88
2021/07/14 01:21:03;;;;;;;20.00;14.13;;;21.30;97.30;;;;;;4977868;28;20436;-88
2021/07/14 01:24:00;;;;;;;18.83;14.90;;;21.40;97.30;;;;;;4978899;28;20417;-89
2021/07/14 01:26:36;;;;;;;19.27;13.40;;;21.30;97.30;;;;;;4978741;28;20954;-88
2021/07/14 01:29:06;;;;;;;16.30;13.10;;;21.30;97.30;;;;;;4979591;28;20420;-89
2021/07/14 01:31:35;;;;;;;19.03;12.90;;;21.30;97.30;;;;;;4996268;28;20452;-88
2021/07/14 01:34:05;;;;;;;18.03;12.90;;;21.30;97.30;;;;;;4978947;28;20413;-89
2021/07/14 01:36:31;;;;;;;18.50;13.30;;;21.30;97.30;;;;;;4978212;28;20449;-88
2021/07/14 01:38:59;;;;;;;18.37;14.10;;;21.30;97.30;;;;;;4978566;28;20440;-89
2021/07/14 01:41:27;;;;;;;18.00;13.33;;;21.30;97.30;;;;;;4979114;28;20413;-89
2021/07/14 01:43:57;;;;;;;18.37;13.77;;;21.20;97.30;;;;;;4979748;28;20436;-89
2021/07/14 01:46:25;;;;;;;16.13;12.60;;;21.10;97.30;;;;;;4979926;28;20440;-88
2021/07/14 01:48:54;;;;;;;18.00;13.50;;;21.00;97.30;;;;;;4979377;28;20409;-89
2021/07/14 01:51:20;;;;;;;19.73;13.50;;;21.00;97.30;;;;;;4978917;28;20417;-88
2021/07/14 01:53:45;;;;;;;19.17;14.33;;;21.00;97.30;;;;;;4978496;28;20460;-89
2021/07/14 01:56:12;;;;;;;16.67;11.47;;;20.90;97.30;;;;;;4979060;28;20564;-88
2021/07/14 01:58:41;;;;;;;19.00;12.67;;;20.90;97.30;;;;;;4978955;28;20189;-88
2021/07/14 02:01:09;;;;;;;15.90;12.60;;;20.90;97.30;;;;;;4978421;28;20488;-88
2021/07/14 02:06:03;;;;;;;15.50;10.60;;;20.80;97.30;;;;;;4995658;28;20444;-89
2021/07/14 02:08:30;;;;;;;14.17;10.60;;;20.80;97.30;;;;;;4977283;28;20465;-88
2021/07/14 02:10:57;;;;;;;13.80;10.67;;;20.80;97.30;;;;;;4977331;28;20408;-88
2021/07/14 02:13:25;;;;;;;16.93;10.10;;;20.80;97.30;;;;;;4977449;28;20530;-89
2021/07/14 02:15:53;;;;;;;13.50;9.37;;;20.80;97.30;;;;;;4977261;28;20417;-89
2021/07/14 02:18:22;;;;;;;15.93;9.60;;;20.80;97.30;;;;;;4977799;28;20425;-89
2021/07/14 02:20:48;;;;;;;13.23;9.80;;;20.80;97.30;;;;;;4977581;28;20432;-88
2021/07/14 02:23:14;;;;;;;18.30;10.03;;;20.90;97.30;;;;;;4976454;28;20425;-89
2021/07/14 02:25:39;;;;;;;15.40;9.30;;;20.80;97.30;;;;;;4976455;28;20835;-88
2021/07/14 02:28:06;;;;;;;19.30;9.87;;;20.70;97.30;;;;;;4976642;28;20444;-89
2021/07/14 02:30:31;;;;;;;11.10;7.73;;;20.60;97.30;;;;;;4977136;28;20192;-89
2021/07/14 02:32:59;;;;;;;14.20;7.80;;;20.60;97.30;;;;;;4977017;28;20452;-88
2021/07/14 02:35:25;;;;;;;7.80;6.63;;;20.50;97.30;;;;;;4977089;28;20729;-89
2021/07/14 02:38:11;;;;;;;16.97;7.70;;;20.50;97.30;;;;;;4976808;28;20445;-89
2021/07/14 02:40:58;;;;;;;15.33;6.50;;;20.40;97.30;;;;;;4994694;28;20496;-89
2021/07/14 02:43:27;;;;;;;9.33;6.47;;;20.40;97.30;;;;;;4977404;28;20500;-88
2021/07/14 02:45:55;;;;;;;23.27;7.57;;;20.30;97.30;;;;;;4989006;28;20424;-89
2021/07/14 02:48:24;;;;;;;8.80;6.70;;;20.30;97.30;;;;;;4998117;28;20420;-88
2021/07/14 02:50:52;;;;;;;9.17;5.90;;;20.30;97.30;;;;;;5001078;28;20431;-88
2021/07/14 02:53:21;;;;;;;10.93;5.77;;;20.40;97.30;;;;;;4985718;28;20511;-88
2021/07/14 02:55:52;;;;;;;11.40;6.30;;;20.20;97.30;;;;;;4982049;28;20421;-88
2021/07/14 02:58:22;;;;;;;9.03;5.70;;;20.20;97.30;;;;;;4981727;28;20405;-88
2021/07/14 03:00:49;;;;;;;10.57;6.53;;;20.10;97.30;;;;;;4982285;28;20404;-89
2021/07/14 03:03:15;;;;;;;10.00;6.47;;;20.00;97.30;;;;;;4982402;28;20447;-89
2021/07/14 03:05:41;;;;;;;11.00;6.17;;;19.90;97.30;;;;;;4981871;28;20425;-88
2021/07/14 03:08:13;;;;;;;8.40;6.53;;;19.80;97.30;;;;;;5028386;23;21068;-86
2021/07/14 03:10:40;;;;;;;10.53;6.30;;;19.80;97.30;;;;;;5036959;28;20391;-85
2021/07/14 03:13:07;;;;;;;9.93;6.00;;;19.70;97.30;;;;;;5019247;28;20450;-85
2021/07/14 03:15:36;;;;;;;12.70;6.53;;;19.70;97.30;;;;;;5019348;28;20438;-85
2021/07/14 03:18:03;;;;;;;13.20;6.60;;;19.60;97.30;;;;;;5019045;28;20467;-85
2021/07/14 03:20:28;;;;;;;19.23;7.13;;;19.60;97.30;;;;;;5019186;28;20912;-84
2021/07/14 03:22:55;;;;;;;15.23;6.40;;;19.60;97.30;;;;;;5019304;28;20506;-85
2021/07/14 03:25:21;;;;;;;11.23;6.70;;;19.60;97.30;;;;;;5019545;28;20376;-85
2021/07/14 03:27:49;;;;;;;11.50;6.83;;;19.60;97.30;;;;;;5017960;28;20435;-85
2021/07/14 03:30:16;;;;;;;13.43;6.33;;;19.60;97.30;;;;;;5018442;28;20173;-85
2021/07/14 03:32:42;;;;;;;11.93;7.13;;;19.60;97.30;;;;;;5018179;28;20538;-85
2021/07/14 03:35:09;;;;;;;10.43;6.37;;;19.60;97.30;;;;;;5018027;28;20422;-85
2021/07/14 03:37:36;;;;;;;11.30;6.37;;;19.60;97.30;;;;;;5018302;28;20457;-85
2021/07/14 03:40:07;;;;;;;10.63;5.20;;;19.60;97.30;;;;;;5018651;28;20419;-84
2021/07/14 03:42:34;;;;;;;11.30;5.70;;;19.60;97.30;;;;;;5018401;28;20423;-85
2021/07/14 03:45:01;;;;;;;9.73;5.10;;;19.50;97.30;;;;;;5018350;28;20796;-85
2021/07/14 03:47:27;;;;;;;16.23;6.47;;;19.60;97.30;;;;;;5018497;28;20418;-85
2021/07/14 03:49:54;;;;;;;16.17;6.07;;;19.60;97.30;;;;;;5018411;28;20443;-84
2021/07/14 03:52:21;;;;;;;10.53;5.30;;;19.60;97.30;;;;;;5036620;28;20482;-84
2021/07/14 03:54:47;;;;;;;7.70;5.37;;;19.60;97.30;;;;;;5019247;28;20420;-85
2021/07/14 03:57:13;;;;;;;12.30;5.40;;;19.60;97.30;;;;;;5019663;28;20419;-84
2021/07/14 03:59:40;;;;;;;9.30;5.20;;;19.60;97.30;;;;;;5018952;28;20426;-85
2021/07/14 04:02:12;;;;;;;6.90;4.73;;;19.60;97.30;;;;;;5037016;28;20409;-85
2021/07/14 04:04:38;;;;;;;14.97;5.60;;;19.60;97.30;;;;;;5019310;28;21084;-85
2021/07/14 04:07:13;;;;;;;11.70;4.97;;;19.60;97.30;;;;;;5019326;28;20967;-84
2021/07/14 04:09:38;;;;;;;12.43;5.07;;;19.50;97.30;;;;;;5037180;28;20396;-84
2021/07/14 04:12:04;;;;;;;7.67;4.80;;;19.40;97.30;;;;;;5018585;28;20473;-84
2021/07/14 04:14:30;;;;;;;7.20;5.10;;;19.40;97.30;;;;;;5018021;28;20183;-85
2021/07/14 04:16:57;;;;;;;6.67;4.60;;;19.40;97.30;;;;;;5018369;28;20185;-83
2021/07/14 04:19:23;;;;;;;19.27;6.60;;;19.40;97.30;;;;;;5017805;28;20462;-85
2021/07/14 04:21:52;;;;;;;17.60;4.47;;;19.40;97.30;;;;;;5017576;28;20423;-84
2021/07/14 04:24:19;;;;;;;7.73;4.10;;;19.40;97.30;;;;;;5018081;28;20454;-85
2021/07/14 04:26:45;;;;;;;21.20;4.87;;;19.50;97.30;;;;;;5018609;28;20427;-85
2021/07/14 04:29:10;;;;;;;15.43;4.80;;;19.50;97.30;;;;;;5017996;28;20965;-85
2021/07/14 04:31:37;;;;;;;3.90;3.70;;;19.50;97.30;;;;;;5017390;28;20470;-85
2021/07/14 04:34:03;;;;;;;14.47;4.77;;;19.40;97.30;;;;;;5007970;28;20183;-84
2021/07/14 04:36:29;;;;;;;24.23;4.80;;;19.40;97.30;;;;;;5014679;28;20412;-85
2021/07/14 04:38:57;;;;;;;10.00;4.40;;;19.40;97.30;;;;;;5004809;28;20444;-85
2021/07/14 04:41:24;;;;;;;11.53;4.63;;;19.50;97.30;;;;;;4997757;28;20185;-84
2021/07/14 04:43:50;;;;;;;7.80;4.30;;;19.40;97.30;;;;;;4997266;28;20914;-84
2021/07/14 04:46:15;;;;;;;9.23;4.47;;;19.40;97.30;;;;;;4997327;28;20417;-84
2021/07/14 04:48:41;;;;;;;6.60;4.10;;;19.30;97.30;;;;;;4997683;28;20213;-84
2021/07/14 04:51:07;;;;;;;9.30;3.90;;;19.20;97.30;;;;;;4997469;28;20260;-84
2021/07/14 04:53:32;;;;;;;13.00;4.53;;;19.20;97.30;;;;;;4996985;28;20232;-84
2021/07/14 04:55:59;;;;;;;6.60;3.67;;;19.20;97.30;;;;;;4997441;28;20489;-85
2021/07/14 04:58:25;;;;;;;7.63;3.83;;;19.30;97.30;;;;;;4998515;28;20193;-85
2021/07/14 05:00:51;;;;;;;12.33;4.50;;;19.40;97.30;;;;;;4998152;28;20435;-87
2021/07/14 05:03:17;;;;;;;7.43;4.10;;;19.40;97.30;;;;;;4999647;28;20412;-82
2021/07/14 05:05:42;;;;;;;8.20;3.50;;;19.30;97.30;;;;;;4999708;28;20189;-84
2021/07/14 05:08:08;;;;;;;12.43;3.90;;;19.30;97.30;;;;;;4999248;28;20315;-84
2021/07/14 05:10:33;;;;;;;5.80;4.20;;;19.20;97.30;;;;;;4999191;28;20169;-85
2021/07/14 05:12:59;;;;;;;10.60;4.27;;;19.20;97.30;;;;;;5006182;28;20755;-85
2021/07/14 05:15:25;;;;;;;5.40;3.50;;;19.10;97.30;;;;;;5023930;28;20176;-82
2021/07/14 05:17:51;;;;;;;7.07;3.53;;;19.10;97.30;;;;;;5039818;28;20207;-83
2021/07/14 05:20:18;;;;;;;8.00;4.13;;;19.00;97.30;;;;;;5002879;28;20181;-85
2021/07/14 05:22:47;;;;;;;5.70;3.77;;;19.00;97.30;;;;;;5003832;28;20416;-86
2021/07/14 05:25:13;;;;;;;8.80;3.97;;;19.10;97.30;;;;;;5004383;28;20428;-86
2021/07/14 05:27:41;;;;;;;5.03;3.70;;;19.00;97.30;;;;;;5002059;28;20440;-86
2021/07/14 05:30:10;;;;;;;6.57;3.40;;;19.00;97.30;;;;;;5001977;28;20503;-85
2021/07/14 05:32:37;;;;;;;5.97;3.27;;;18.90;97.30;;;;;;5006712;28;20829;-85
2021/07/14 05:35:06;;;;;;;6.20;3.40;;;18.90;97.30;;;;;;5015895;28;20623;-85
2021/07/14 05:37:32;;;;;;;7.57;3.50;;;18.90;97.30;;;;;;5015788;28;20517;-86
2021/07/14 05:39:58;;;;;;;6.27;3.77;;;18.90;97.30;;;;;;5015744;28;20447;-85
2021/07/14 05:42:23;;;;;;;7.47;3.60;;;18.90;97.30;;;;;;5016002;28;20419;-84
2021/07/14 05:44:49;;;;;;;10.20;3.80;;;19.00;97.30;;;;;;5032466;28;20562;-86
2021/07/14 05:47:14;;;;;;;7.53;4.00;;;18.90;97.30;;;;;;5016246;28;20211;-86
2021/07/14 05:49:40;;;;;;;8.10;3.67;;;18.90;97.30;;;;;;5016566;28;20224;-85
2021/07/14 05:52:08;;;;;;;7.23;3.20;;;18.90;97.30;;;;;;5018140;28;20226;-83
2021/07/14 05:54:34;;;;;;;5.40;3.53;;;18.90;97.30;;;;;;5019728;28;20181;-84
2021/07/14 05:56:59;;;;;;;10.60;4.13;;;18.80;97.30;;;;;;5018971;28;20458;-84
2021/07/14 05:59:25;;;;;;;4.00;3.80;;;18.80;97.30;;;;;;5035351;28;20208;-87
2021/07/14 06:01:50;;;;;;;5.90;3.60;;;18.80;97.30;;;;;;5018802;28;20185;-85
2021/07/14 06:04:16;;;;;;;6.13;4.00;;;18.80;97.30;;;;;;5017960;28;20192;-84
2021/07/14 06:06:43;;;;;;;5.23;3.30;;;18.80;97.30;;;;;;5020089;28;20192;-85
2021/07/14 06:09:09;;;;;;;10.00;3.50;;;18.80;97.30;;;;;;5017460;28;20248;-84
2021/07/14 06:11:34;;;;;;;5.03;3.63;;;18.80;97.30;;;;;;5035957;28;20422;-84
2021/07/14 06:14:00;;;;;;;5.20;3.80;;;18.90;97.30;;;;;;5035215;28;20184;-86
2021/07/14 06:16:25;;;;;;;6.90;3.73;;;18.80;97.30;;;;;;5019016;28;20610;-84
2021/07/14 06:18:51;;;;;;;6.77;3.83;;;18.80;97.30;;;;;;5017639;28;20216;-85
2021/07/14 06:21:17;;;;;;;5.97;3.60;;;18.90;97.30;;;;;;5017988;28;20191;-86
2021/07/14 06:23:42;;;;;;;4.40;3.70;;;18.90;97.30;;;;;;5016994;28;20180;-86
2021/07/14 06:26:08;;;;;;;14.40;4.10;;;19.00;97.30;;;;;;5018531;28;20985;-83
2021/07/14 06:28:33;;;;;;;7.37;3.83;;;19.10;97.30;;;;;;5016007;28;20200;-87
2021/07/14 06:30:59;;;;;;;10.63;3.90;;;19.10;97.30;;;;;;5015828;28;20193;-84
2021/07/14 06:33:24;;;;;;;7.37;3.87;;;19.10;97.30;;;;;;5015904;28;20204;-85
2021/07/14 06:35:53;;;;;;;9.30;3.70;;;19.10;97.30;;;;;;5020640;28;20259;-83
2021/07/14 06:38:20;;;;;;;4.30;4.03;;;19.20;97.30;;;;;;4996121;28;20201;-87
2021/07/14 06:40:46;;;;;;;6.00;3.50;;;19.20;97.30;;;;;;5015301;28;20450;-84
2021/07/14 06:43:16;;;;;;;5.90;3.23;;;19.20;97.30;;;;;;5015741;28;20423;-84
2021/07/14 06:45:43;;;;;;;4.90;4.00;;;19.20;97.30;;;;;;5015870;28;20218;-83
2021/07/14 06:48:09;;;;;;;4.60;3.70;;;19.30;97.30;;;;;;5017036;28;20485;-84
2021/07/14 06:50:34;;;;;;;11.50;4.30;;;19.40;97.30;;;;;;5021478;28;20415;-86
2021/07/14 06:53:02;;;;;;;7.77;3.60;;;19.40;97.30;;;;;;5020781;28;20211;-85
2021/07/14 06:55:28;;;;;;;4.70;3.67;;;19.40;97.30;;;;;;5017983;28;20244;-85
2021/07/14 06:57:54;;;;;;;8.73;3.73;;;19.50;97.30;;;;;;5017037;28;20878;-85
2021/07/14 07:00:19;;;;;;;4.17;3.63;;;19.60;97.30;;;;;;5016760;28;20194;-85
2021/07/14 07:02:45;;;;;;;9.00;3.80;;;19.60;97.30;;;;;;5033478;28;20189;-85
2021/07/14 07:05:11;;;;;;;7.23;3.70;;;19.60;97.30;;;;;;5016273;28;20177;-84
2021/07/14 07:07:37;;;;;;;14.73;4.20;;;19.70;97.30;;;;;;5033187;28;20224;-84
2021/07/14 07:10:05;;;;;;;7.70;3.67;;;19.90;97.30;;;;;;5015616;28;20430;-84
2021/07/14 07:12:30;;;;;;;7.90;3.70;;;20.00;97.30;;;;;;5033423;28;20208;-85
2021/07/14 07:14:56;;;;;;;9.30;3.93;;;19.90;97.30;;;;;;5015692;28;20415;-85
2021/07/14 07:17:21;;;;;;;4.80;3.70;;;19.90;97.30;;;;;;5016899;28;20181;-84
2021/07/14 07:19:47;;;;;;;6.80;3.57;;;20.00;97.30;;;;;;5014976;28;20204;-84
2021/07/14 07:22:12;;;;;;;6.47;4.10;;;19.90;97.30;;;;;;5015020;28;20222;-84
2021/07/14 07:24:38;;;;;;;5.90;3.70;;;19.90;97.30;;;;;;5032573;28;20869;-84
2021/07/14 07:27:06;;;;;;;5.60;3.57;;;19.90;97.30;;;;;;5015598;28;20181;-84
2021/07/14 07:29:32;;;;;;;12.27;3.50;;;19.90;97.30;;;;;;5014677;28;20208;-85
2021/07/14 07:31:57;;;;;;;7.20;4.10;;;19.90;97.30;;;;;;5015180;28;20466;-85
2021/07/14 07:34:23;;;;;;;7.30;3.77;;;19.90;97.30;;;;;;5033426;28;20231;-85
2021/07/14 07:36:49;;;;;;;3.40;3.20;;;20.00;97.30;;;;;;5018533;28;20180;-84
2021/07/14 07:39:15;;;;;;;5.77;3.53;;;20.00;97.30;;;;;;5018747;28;20258;-84
2021/07/14 07:41:41;;;;;;;7.17;3.40;;;20.00;97.30;;;;;;5018569;28;20441;-85
2021/07/14 07:44:07;;;;;;;8.17;3.63;;;20.00;97.30;;;;;;5018887;28;20925;-85
2021/07/14 07:46:34;;;;;;;9.67;3.80;;;20.10;97.30;;;;;;5018794;28;20513;-85
2021/07/14 07:49:00;;;;;;;6.90;3.57;;;20.10;97.30;;;;;;5020441;28;20249;-85
2021/07/14 07:51:26;;;;;;;8.17;3.87;;;20.10;97.30;;;;;;5020775;28;20419;-85
2021/07/14 07:53:53;;;;;;;4.97;3.50;;;20.10;97.30;;;;;;5019512;28;20434;-85
2021/07/14 07:56:19;;;;;;;5.30;3.53;;;20.10;97.30;;;;;;5019232;28;20218;-84
2021/07/14 07:58:44;;;;;;;4.30;3.90;;;20.10;97.30;;;;;;5019700;28;20530;-84
2021/07/14 08:01:10;;;;;;;4.93;3.43;;;20.10;97.30;;;;;;5018612;28;20434;-85
2021/07/14 08:03:36;;;;;;;3.73;3.53;;;20.10;97.30;;;;;;5019054;28;20184;-84
2021/07/14 08:06:01;;;;;;;7.03;4.00;;;20.10;97.30;;;;;;5017846;28;20542;-85
2021/07/14 08:08:27;;;;;;;6.87;4.30;;;20.10;97.30;;;;;;5018327;28;20227;-85
2021/07/14 08:10:56;;;;;;;9.87;3.80;;;20.10;97.30;;;;;;5017752;28;20242;-85
2021/07/14 08:13:23;;;;;;;5.33;4.30;;;20.10;97.30;;;;;;5018350;28;20294;-85
2021/07/14 08:15:49;;;;;;;7.97;4.20;;;20.20;97.30;;;;;;5018155;28;20419;-85
2021/07/14 08:18:15;;;;;;;6.20;4.67;;;20.10;97.30;;;;;;5018120;28;20439;-85
2021/07/14 08:20:41;;;;;;;3.93;3.57;;;20.10;97.30;;;;;;5017595;28;20469;-85
2021/07/14 08:23:07;;;;;;;6.00;4.03;;;20.20;97.30;;;;;;5017871;28;20415;-85
2021/07/14 08:25:33;;;;;;;10.30;4.63;;;20.20;97.30;;;;;;5017204;28;20434;-86
2021/07/14 08:27:58;;;;;;;6.03;3.73;;;20.20;97.30;;;;;;5017317;28;20508;-85
2021/07/14 08:30:24;;;;;;;6.87;3.93;;;20.20;97.30;;;;;;5017066;28;20184;-85
2021/07/14 08:32:50;;;;;;;6.37;4.30;;;20.20;97.30;;;;;;5017285;28;20192;-85
2021/07/14 08:35:16;;;;;;;7.73;4.20;;;20.30;97.30;;;;;;5017872;28;20172;-85
2021/07/14 08:37:41;;;;;;;5.93;4.17;;;20.20;97.30;;;;;;5017699;28;20208;-85
2021/07/14 08:40:08;;;;;;;4.63;3.77;;;20.20;97.30;;;;;;5017606;28;20218;-86
2021/07/14 08:42:36;;;;;;;11.50;4.30;;;20.20;97.30;;;;;;5017348;28;20180;-85
2021/07/14 08:45:04;;;;;;;10.13;4.10;;;20.30;97.30;;;;;;5017613;28;20697;-85
2021/07/14 08:47:31;;;;;;;6.90;3.63;;;20.30;97.30;;;;;;5016561;28;20473;-86
2021/07/14 08:49:56;;;;;;;3.90;3.70;;;20.20;97.30;;;;;;5018219;28;20477;-87
2021/07/14 08:52:23;;;;;;;6.20;4.27;;;20.30;97.30;;;;;;5018388;28;20462;-86
2021/07/14 08:54:49;;;;;;;7.60;3.47;;;20.30;97.30;;;;;;5019044;28;20185;-86
2021/07/14 08:57:16;;;;;;;5.40;3.80;;;20.30;97.30;;;;;;5019504;28;20427;-86
2021/07/14 08:59:43;;;;;;;5.30;4.53;;;20.40;97.30;;;;;;5018060;28;20956;-85
2021/07/14 09:02:08;;;;;;;7.17;4.00;;;20.40;97.30;;;;;;5018767;28;20435;-85
2021/07/14 09:04:35;;;;;;;3.73;3.60;;;20.50;97.30;;;;;;5018118;28;20415;-86
2021/07/14 09:07:00;;;;;;;7.40;4.63;;;20.50;97.30;;;;;;5017977;28;20199;-86
2021/07/14 09:09:28;;;;;;;6.33;3.80;;;20.60;97.30;;;;;;5053235;23;20495;-86
2021/07/14 09:11:59;;;;;;;5.87;4.30;;;20.80;97.30;;;;;;5018650;28;20246;-86
2021/07/14 09:14:25;;;;;;;8.23;5.00;;;20.90;97.30;;;;;;5017962;28;20501;-86
2021/07/14 09:17:24;;;;;;;7.63;5.20;;;21.00;97.30;;;;;;5016594;28;20424;-86
2021/07/14 09:20:16;;;;;;;7.20;4.57;;;21.10;97.30;;;;;;5013000;28;20535;-86
2021/07/14 09:22:44;;;;;;;6.83;4.30;;;21.10;97.30;;;;;;4998168;28;20929;-86
2021/07/14 09:25:28;;;;;;;8.27;4.40;;;21.10;97.30;;;;;;5006135;28;20434;-86
2021/07/14 09:28:05;;;;;;;14.30;5.10;;;21.10;97.30;;;;;;5012769;28;20420;-86
2021/07/14 09:31:18;;;;;;;6.83;4.47;;;21.10;97.30;;;;;;4997524;28;20412;-86
2021/07/14 09:33:45;;;;;;;6.70;4.50;;;21.20;97.30;;;;;;4995779;28;20485;-88
2021/07/14 09:36:16;;;;;;;10.00;5.40;;;21.20;97.30;;;;;;5002762;28;20427;-88
2021/07/14 09:38:46;;;;;;;4.93;4.37;;;21.20;97.30;;;;;;5004443;28;20477;-88
2021/07/14 09:41:15;;;;;;;8.73;4.43;;;21.10;97.30;;;;;;5011187;28;20443;-88
2021/07/14 09:43:46;;;;;;;6.20;4.63;;;21.10;97.30;;;;;;5017237;28;20498;-88
2021/07/14 09:46:17;;;;;;;6.40;4.67;;;21.00;97.30;;;;;;5016566;28;20412;-88
2021/07/14 09:48:49;;;;;;;6.13;4.83;;;20.90;97.30;;;;;;5014962;28;20458;-88
2021/07/14 09:51:24;;;;;;;6.23;4.70;;;20.70;97.30;;;;;;5016811;28;20489;-88
2021/07/14 09:53:55;;;;;;;7.93;5.07;;;20.60;97.30;;;;;;5008645;28;20455;-87
2021/07/14 09:56:27;;;;;;;9.33;4.53;;;20.60;97.30;;;;;;5007811;28;20790;-88
2021/07/14 09:59:04;;;;;;;5.30;4.13;;;20.60;97.30;;;;;;4995977;28;20503;-87
2021/07/14 10:01:38;;;;;;;4.93;3.70;;;20.40;97.30;;;;;;5007353;28;20463;-88
2021/07/14 10:04:08;;;;;;;4.23;3.70;;;20.40;97.30;;;;;;5001875;28;20508;-90
2021/07/14 10:06:37;;;;;;;6.00;3.00;;;20.20;97.30;;;;;;4997565;28;20463;-88
2021/07/14 10:09:06;;;;;;;6.83;3.40;;;20.10;97.30;;;;;;4997802;28;20980;-89
2021/07/14 10:11:36;;;;;;;6.10;3.70;;;20.00;97.30;;;;;;4999748;28;21051;-88
2021/07/14 10:14:09;;;;;;;3.77;3.60;;;19.80;97.30;;;;;;5015064;28;20412;-88
2021/07/14 10:16:40;;;;;;;5.93;3.10;;;19.80;97.30;;;;;;5000166;28;20427;-88
2021/07/14 10:19:08;;;;;;;9.03;3.63;;;19.70;97.30;;;;;;5016610;28;20407;-88
2021/07/14 10:21:42;;;;;;;5.13;3.57;;;19.70;97.30;;;;;;5013709;28;20435;-87
2021/07/14 10:24:11;;;;;;;3.93;3.40;;;19.70;97.30;;;;;;5013087;28;20415;-88
2021/07/14 10:26:39;;;;;;;6.13;3.50;;;19.70;97.30;;;;;;5005287;28;20959;-88
2021/07/14 10:29:05;;;;;;;6.17;3.17;;;19.80;97.30;;;;;;5015548;28;20403;-88
2021/07/14 10:31:32;;;;;;;9.77;3.30;;;20.00;97.30;;;;;;5008047;28;20459;-89
2021/07/14 10:33:59;;;;;;;4.20;3.50;;;20.20;97.30;;;;;;5015446;28;20431;-88
2021/07/14 10:36:31;;;;;;;3.33;3.13;;;20.40;97.30;;;;;;5016748;28;20460;-89
2021/07/14 10:39:01;;;;;;;9.20;3.60;;;20.50;97.30;;;;;;5016251;28;20994;-88
2021/07/14 10:46:36;;;;;;;5.87;3.57;;;20.80;97.30;;;;;;5011689;28;20949;-89
2021/07/14 10:49:05;;;;;;;3.70;2.80;;;20.90;97.30;;;;;;4995658;28;20954;-89
2021/07/14 10:51:32;;;;;;;4.80;3.77;;;20.90;97.30;;;;;;4979540;28;20412;-85
2021/07/14 10:54:02;;;;;;;4.53;3.67;;;20.80;97.30;;;;;;4995815;28;20468;-88
2021/07/14 10:56:29;;;;;;;3.87;3.67;;;20.60;97.30;;;;;;4995940;28;20509;-87
2021/07/14 10:58:57;;;;;;;5.27;3.67;;;20.50;97.30;;;;;;4998664;28;20440;-89
2021/07/14 11:01:46;;;;;;;6.40;4.10;;;20.40;97.30;;;;;;5001892;28;20408;-85
2021/07/14 11:04:18;;;;;;;5.00;3.80;;;20.30;97.30;;;;;;5001349;28;20934;-87
2021/07/14 11:07:07;;;;;;;5.43;3.90;;;20.20;97.30;;;;;;4989499;28;20462;-88
2021/07/14 11:09:46;;;;;;;5.03;3.97;;;20.20;97.30;;;;;;4983774;28;20806;-89
2021/07/14 11:12:26;;;;;;;7.77;3.97;;;20.30;97.30;;;;;;4989722;28;20459;-89
2021/07/14 11:14:58;;;;;;;4.77;3.87;;;20.50;97.30;;;;;;4990688;28;20464;-88
2021/07/14 11:17:32;;;;;;;8.00;3.47;;;20.70;97.30;;;;;;4980969;28;20763;-89
2021/07/14 11:20:13;;;;;;;3.87;3.17;;;20.80;97.30;;;;;;4991535;28;20443;-88
2021/07/14 11:22:42;;;;;;;3.37;3.17;;;20.90;97.30;;;;;;4997401;28;20486;-89
2021/07/14 11:25:28;;;;;;;4.87;3.80;;;21.00;97.30;;;;;;4999830;28;20420;-88
2021/07/14 11:28:08;;;;;;;3.27;3.10;;;21.10;97.30;;;;;;4989415;28;20931;-89
2021/07/14 11:30:42;;;;;;;5.03;3.27;;;21.20;97.30;;;;;;4998666;28;20938;-88
2021/07/14 11:33:08;;;;;;;14.70;4.00;;;21.20;97.30;;;;;;4999804;28;20474;-88
2021/07/14 11:35:45;;;;;;;3.20;3.00;;;21.30;97.30;;;;;;4998853;28;20426;-89
2021/07/14 11:38:16;;;;;;;4.50;3.53;;;21.20;97.30;;;;;;4986081;28;21010;-88
2021/07/14 11:40:45;;;;;;;6.10;3.57;;;21.40;97.30;;;;;;4999314;28;20416;-89
2021/07/14 11:43:11;;;;;;;5.33;3.03;;;21.60;97.30;;;;;;4985401;28;20437;-88
2021/07/14 11:45:44;;;;;;;3.97;3.80;;;21.60;97.30;;;;;;4985056;28;20822;-89
2021/07/14 11:48:17;;;;;;;3.30;3.10;;;21.60;97.30;;;;;;4970222;28;20668;-88
2021/07/14 11:50:53;;;;;;;4.03;3.90;;;21.60;97.30;;;;;;4977565;28;20490;-89
2021/07/14 11:53:29;;;;;;;4.67;3.20;;;21.60;97.30;;;;;;4980249;28;20460;-89
2021/07/14 11:56:22;;;;;;;3.93;3.70;;;21.50;97.30;;;;;;4981049;28;20428;-88
2021/07/14 11:58:52;;;;;;;6.33;3.43;;;21.50;97.30;;;;;;4980392;28;20433;-89
2021/07/14 12:01:18;;;;;;;6.50;3.50;;;21.40;97.30;;;;;;4981017;28;20425;-89
2021/07/14 12:03:59;;;;;;;4.40;4.10;;;21.30;97.30;;;;;;4980735;28;20811;-89
2021/07/14 12:06:45;;;;;;;4.70;3.63;;;21.30;97.30;;;;;;4982433;28;20181;-88
2021/07/14 12:09:14;;;;;;;3.77;3.50;;;21.40;97.30;;;;;;4987194;28;20444;-90
2021/07/14 12:11:42;;;;;;;3.87;3.03;;;21.40;97.30;;;;;;4985750;28;20426;-89
2021/07/14 12:14:14;;;;;;;3.80;3.40;;;21.50;97.30;;;;;;4999056;28;20567;-87
2021/07/14 12:17:44;;;;;;;3.80;3.60;;;21.60;97.30;;;;;;4987743;28;20535;-88
2021/07/14 12:20:14;;;;;;;3.67;3.47;;;21.70;97.30;;;;;;4918863;29;20484;-86
2021/07/14 12:22:43;;;;;;;4.10;3.53;;;21.80;97.30;;;;;;4973868;28;20579;-88
2021/07/14 12:25:13;;;;;;;4.10;3.33;;;21.80;97.30;;;;;;4974805;28;20471;-86
2021/07/14 12:27:45;;;;;;;7.97;3.57;;;21.90;97.30;;;;;;4970897;28;20437;-88
2021/07/14 12:30:14;;;;;;;4.20;3.57;;;21.90;97.30;;;;;;4979553;28;20452;-88
2021/07/14 12:32:53;;;;;;;3.80;3.40;;;21.90;97.30;;;;;;4992091;28;20441;-88
2021/07/14 12:35:22;;;;;;;3.57;3.43;;;22.00;97.30;;;;;;4980126;28;20811;-88
2021/07/14 12:38:19;;;;;;;3.77;3.57;;;22.10;97.30;;;;;;4980149;28;21001;-88
2021/07/14 12:40:53;;;;;;;3.40;3.20;;;22.20;97.30;;;;;;4979949;28;20944;-87
2021/07/14 12:43:22;;;;;;;5.50;3.57;;;22.20;97.30;;;;;;4961215;28;20429;-88
2021/07/14 12:45:54;;;;;;;4.97;3.33;;;22.30;97.30;;;;;;4961183;28;20901;-88
2021/07/14 12:48:32;;;;;;;4.83;3.67;;;22.40;97.30;;;;;;4999029;28;20455;-87
2021/07/14 12:51:01;;;;;;;4.07;3.37;;;22.40;97.30;;;;;;4993664;28;20421;-88
2021/07/14 12:53:32;;;;;;;4.97;3.83;;;22.40;97.30;;;;;;4980350;28;20457;-88
2021/07/14 12:56:02;;;;;;;4.80;3.30;;;22.40;97.30;;;;;;4978725;28;20429;-88
2021/07/14 12:58:32;;;;;;;8.53;3.70;;;22.40;97.30;;;;;;4978406;28;20441;-89
2021/07/14 13:01:05;;;;;;;8.83;3.53;;;22.40;97.30;;;;;;4978071;28;20417;-88
2021/07/14 13:03:31;;;;;;;5.93;4.27;;;22.40;97.30;;;;;;4977885;28;20433;-88
2021/07/14 13:06:10;;;;;;;5.47;4.00;;;22.40;97.30;;;;;;4978727;28;20421;-88